createdAt,value
2019-04-23T00:04:03.775Z,16.30
2019-04-23T00:09:15.641Z,16.10
2019-04-23T00:14:12.393Z,16.10
2019-04-23T00:19:22.924Z,16.10
2019-04-23T00:24:56.878Z,16.10
2019-04-23T00:34:56.381Z,16.10
2019-04-23T00:39:52.820Z,15.90
2019-04-23T00:44:57.351Z,15.90
2019-04-23T00:55:14.769Z,15.70
2019-04-23T01:05:27.784Z,15.50
2019-04-23T01:10:36.235Z,15.40
2019-04-23T01:15:42.725Z,15.50
2019-04-23T01:20:50.288Z,15.40
2019-04-23T01:25:50.093Z,15.40
2019-04-23T01:41:25.268Z,15.20
2019-04-23T01:46:33.889Z,15.10
2019-04-23T01:51:36.321Z,15.20
2019-04-23T01:56:33.883Z,15.10
2019-04-23T02:01:44.653Z,15.10
2019-04-23T02:06:44.912Z,15.00
2019-04-23T02:11:53.623Z,14.80
2019-04-23T02:16:57.820Z,14.70
2019-04-23T02:22:26.060Z,14.70
2019-04-23T02:27:27.829Z,14.70
2019-04-23T02:32:37.826Z,14.60
2019-04-23T02:37:54.559Z,14.50
2019-04-23T02:43:01.262Z,14.40
2019-04-23T02:47:54.969Z,14.30
2019-04-23T02:53:02.517Z,14.20
2019-04-23T02:58:01.194Z,14.10
2019-04-23T03:03:06.041Z,14.00
2019-04-23T03:08:26.837Z,13.80
2019-04-23T03:23:44.256Z,13.60
2019-04-23T03:28:59.845Z,13.60
2019-04-23T03:38:48.748Z,13.50
2019-04-23T03:54:24.433Z,13.30
2019-04-23T04:04:31.229Z,13.00
2019-04-23T04:14:38.937Z,13.10
2019-04-23T04:19:40.093Z,13.10
2019-04-23T04:45:04.823Z,12.70
2019-04-23T04:55:19.488Z,12.60
2019-04-23T05:00:23.600Z,12.60
2019-04-23T05:05:55.541Z,12.60
2019-04-23T05:10:32.463Z,12.60
2019-04-23T05:15:28.482Z,12.70
2019-04-23T05:20:37.607Z,14.80
2019-04-23T05:25:40.048Z,15.70
2019-04-23T05:46:13.006Z,15.40
2019-04-23T05:51:10.933Z,14.50
2019-04-23T05:56:15.188Z,14.10
2019-04-23T06:01:45.729Z,14.10
2019-04-23T06:06:37.869Z,14.00
2019-04-23T06:11:45.832Z,14.20
2019-04-23T06:16:41.439Z,14.30
2019-04-23T06:21:57.508Z,14.50
2019-04-23T06:26:55.086Z,14.70
2019-04-23T06:31:57.274Z,14.80
2019-04-23T06:36:59.008Z,14.90
2019-04-23T06:47:06.664Z,15.00
2019-04-23T06:52:18.718Z,15.10
2019-04-23T07:02:30.615Z,15.30
2019-04-23T07:07:42.535Z,15.50
2019-04-23T07:12:38.847Z,15.60
2019-04-23T07:17:39.621Z,15.40
2019-04-23T07:22:53.735Z,15.60
2019-04-23T07:27:51.288Z,15.80
2019-04-23T07:32:56.628Z,15.70
2019-04-23T07:38:14.615Z,15.80
2019-04-23T07:53:23.109Z,16.60
2019-04-23T07:58:29.260Z,16.90
2019-04-23T08:08:36.431Z,17.70
2019-04-23T08:18:55.697Z,18.10
2019-04-23T08:24:20.120Z,18.00
2019-04-23T08:29:14.117Z,17.90
2019-04-23T08:39:24.949Z,17.80
2019-04-23T08:44:38.648Z,18.00
2019-04-23T08:49:43.526Z,18.00
2019-04-23T09:04:53.804Z,18.10
2019-04-23T09:15:09.673Z,18.30
2019-04-23T09:20:18.777Z,18.30
2019-04-23T09:25:20.273Z,18.40
2019-04-23T09:30:23.387Z,18.40
2019-04-23T09:35:38.948Z,18.60
2019-04-23T09:41:16.686Z,18.80
2019-04-23T09:46:12.320Z,18.80
2019-04-23T09:51:18.119Z,18.80
2019-04-23T09:56:27.194Z,19.10
2019-04-23T10:06:32.723Z,19.30
2019-04-23T10:11:32.347Z,19.70
2019-04-23T10:16:36.928Z,20.00
2019-04-23T10:21:41.890Z,20.00
2019-04-23T10:26:46.185Z,20.10
2019-04-23T10:31:51.409Z,20.00
2019-04-23T10:36:55.612Z,19.60
2019-04-23T10:42:01.222Z,19.50
2019-04-23T10:47:58.958Z,19.70
2019-04-23T10:53:02.154Z,19.90
2019-04-23T10:58:04.180Z,20.10
2019-04-23T11:03:26.817Z,20.00
2019-04-23T11:08:10.723Z,20.20
2019-04-23T11:13:25.710Z,20.20
2019-04-23T11:18:24.630Z,20.10
2019-04-23T11:23:29.416Z,20.10
2019-04-23T11:28:33.238Z,20.10
2019-04-23T11:33:46.377Z,20.30
2019-04-23T11:43:46.449Z,20.10
2019-04-23T11:54:01.369Z,20.30
2019-04-23T11:59:25.737Z,20.60
2019-04-23T12:09:34.834Z,20.80
2019-04-23T12:14:42.150Z,20.90
2019-04-23T12:29:52.422Z,20.90
2019-04-23T12:55:21.695Z,21.20
2019-04-23T13:00:25.960Z,21.40
2019-04-23T13:10:43.988Z,21.50
2019-04-23T13:15:45.014Z,21.60
2019-04-23T13:31:07.903Z,21.50
2019-04-23T13:41:17.131Z,21.70
2019-04-23T13:46:17.064Z,21.60
2019-04-23T13:51:25.854Z,21.70
2019-04-23T13:56:46.584Z,21.80
2019-04-23T14:01:35.583Z,21.90
2019-04-23T14:06:46.454Z,21.90
2019-04-23T14:11:40.449Z,22.10
2019-04-23T14:17:17.492Z,22.00
2019-04-23T14:22:09.737Z,22.20
2019-04-23T14:27:08.835Z,22.30
2019-04-23T14:32:15.985Z,22.20
2019-04-23T14:37:16.870Z,22.00
2019-04-23T14:42:26.416Z,21.90
2019-04-23T14:47:27.809Z,22.10
2019-04-23T14:57:45.263Z,22.50
2019-04-23T15:02:44.794Z,22.80
2019-04-23T15:07:50.822Z,22.90
2019-04-23T15:12:54.340Z,22.80
2019-04-23T15:18:13.167Z,22.80
2019-04-23T15:23:29.929Z,22.70
2019-04-23T15:28:06.583Z,22.70
2019-04-23T15:33:30.082Z,22.80
2019-04-23T15:38:40.050Z,22.90
2019-04-23T15:43:22.521Z,22.90
2019-04-23T15:48:31.312Z,22.80
2019-04-23T15:53:31.073Z,22.80
2019-04-23T15:59:00.176Z,22.70
2019-04-23T16:03:20.620Z,22.80
2019-04-23T16:09:05.407Z,22.80
2019-04-23T16:14:15.797Z,22.70
2019-04-23T16:19:15.223Z,22.70
2019-04-23T16:34:33.245Z,22.70
2019-04-23T16:39:44.053Z,22.50
2019-04-23T16:44:59.666Z,22.50
2019-04-23T16:49:58.894Z,22.50
2019-04-23T16:55:04.647Z,22.60
2019-04-23T17:00:15.269Z,22.50
2019-04-23T17:05:14.580Z,22.40
2019-04-23T17:10:23.358Z,22.40
2019-04-23T17:15:25.991Z,22.30
2019-04-23T17:20:31.211Z,22.30
2019-04-23T17:25:48.816Z,22.30
2019-04-23T17:30:41.336Z,22.20
2019-04-23T17:36:05.460Z,22.10
2019-04-23T17:41:05.896Z,22.00
2019-04-23T17:46:12.026Z,22.00
2019-04-23T17:51:10.968Z,21.80
2019-04-23T18:01:31.072Z,21.60
2019-04-23T18:06:37.972Z,21.40
2019-04-23T18:11:39.038Z,21.40
2019-04-23T18:16:57.565Z,21.40
2019-04-23T18:21:55.278Z,21.30
2019-04-23T18:27:01.209Z,21.20
2019-04-23T18:32:09.465Z,21.10
2019-04-23T18:37:11.727Z,21.10
2019-04-23T18:42:19.907Z,21.00
2019-04-23T18:47:26.043Z,20.90
2019-04-23T18:57:33.910Z,20.70
2019-04-23T19:02:52.349Z,20.70
2019-04-23T19:08:01.423Z,20.60
2019-04-23T19:13:06.727Z,20.60
2019-04-23T19:18:04.009Z,20.50
2019-04-23T19:23:32.131Z,20.40
2019-04-23T19:28:36.926Z,20.30
2019-04-23T19:33:32.876Z,20.20
2019-04-23T19:48:57.508Z,20.20
2019-04-23T19:58:55.145Z,20.10
2019-04-23T20:03:54.208Z,20.10
2019-04-23T20:09:17.597Z,20.00
2019-04-23T20:14:02.354Z,20.00
2019-04-23T20:19:21.212Z,20.00
2019-04-23T20:24:52.667Z,19.80
2019-04-23T20:39:49.173Z,19.70
2019-04-23T20:49:48.844Z,19.60
2019-04-23T20:55:02.131Z,19.50
2019-04-23T21:36:18.516Z,19.10
2019-04-23T21:41:50.975Z,19.00
2019-04-23T21:46:51.012Z,18.90
2019-04-23T21:51:57.451Z,19.00
2019-04-23T21:56:53.953Z,19.00
2019-04-23T22:02:03.488Z,19.00
2019-04-23T22:07:10.078Z,19.00
2019-04-23T22:12:15.430Z,18.90
2019-04-23T22:17:28.269Z,18.90
2019-04-23T22:22:28.629Z,18.80
2019-04-23T22:27:27.629Z,18.80
2019-04-23T22:32:55.517Z,18.80
2019-04-23T22:37:45.825Z,18.80
2019-04-23T22:47:56.101Z,18.70
2019-04-23T22:53:00.643Z,18.60
2019-04-23T23:03:22.624Z,18.50
2019-04-23T23:08:48.179Z,18.50
2019-04-23T23:13:28.487Z,18.50
2019-04-23T23:18:52.442Z,18.50
2019-04-23T23:23:40.380Z,18.40
2019-04-23T23:28:42.600Z,18.40
2019-04-23T23:33:47.451Z,18.40
2019-04-23T23:38:58.454Z,18.40
2019-04-23T23:44:20.772Z,18.30
2019-04-23T23:49:03.219Z,18.40
2019-04-23T23:54:10.374Z,18.30
2019-04-23T23:59:18.006Z,18.30
